sensor_id;sensor_type;location;lat;lon;timestamp;P1;durP1;ratioP1;P2;durP2;ratioP2
9186;SDS011;7273;48.902;9.410;2022-09-01T02:46:44;7.75;;;2.22;;
9186;SDS011;7273;48.902;9.410;2022-09-01T02:49:11;3.03;;;2.10;;
9186;SDS011;7273;48.902;9.410;2022-09-01T02:51:47;5.25;;;2.42;;
9186;SDS011;7273;48.902;9.410;2022-09-01T02:54:18;5.18;;;2.60;;
9186;SDS011;7273;48.902;9.410;2022-09-01T02:56:48;8.75;;;2.88;;
9186;SDS011;7273;48.902;9.410;2022-09-01T02:59:16;4.88;;;2.80;;
9186;SDS011;7273;48.902;9.410;2022-09-01T03:01:46;6.07;;;2.90;;
9186;SDS011;7273;48.902;9.410;2022-09-01T03:04:13;8.10;;;2.50;;
9186;SDS011;7273;48.902;9.410;2022-09-01T03:06:38;6.68;;;2.33;;
9186;SDS011;7273;48.902;9.410;2022-09-01T03:09:05;5.60;;;2.63;;
9186;SDS011;7273;48.902;9.410;2022-09-01T03:11:34;4.70;;;1.95;;
9186;SDS011;7273;48.902;9.410;2022-09-01T03:14:01;5.15;;;2.38;;
9186;SDS011;7273;48.902;9.410;2022-09-01T03:16:27;4.32;;;1.90;;
9186;SDS011;7273;48.902;9.410;2022-09-01T03:18:54;5.10;;;2.20;;
9186;SDS011;7273;48.902;9.410;2022-09-01T03:21:20;4.22;;;2.10;;
9186;SDS011;7273;48.902;9.410;2022-09-01T03:23:49;6.90;;;2.53;;
9186;SDS011;7273;48.902;9.410;2022-09-01T03:26:17;9.07;;;2.83;;
9186;SDS011;7273;48.902;9.410;2022-09-01T03:28:46;4.88;;;2.42;;
9186;SDS011;7273;48.902;9.410;2022-09-01T03:31:13;5.53;;;2.28;;
9186;SDS011;7273;48.902;9.410;2022-09-01T03:33:39;3.58;;;2.42;;
9186;SDS011;7273;48.902;9.410;2022-09-01T03:36:05;4.47;;;2.28;;
9186;SDS011;7273;48.902;9.410;2022-09-01T03:38:31;7.65;;;2.78;;
9186;SDS011;7273;48.902;9.410;2022-09-01T03:40:59;5.03;;;2.53;;
9186;SDS011;7273;48.902;9.410;2022-09-01T03:43:27;4.57;;;2.05;;
9186;SDS011;7273;48.902;9.410;2022-09-01T03:45:54;5.10;;;2.85;;
9186;SDS011;7273;48.902;9.410;2022-09-01T03:48:22;7.70;;;2.97;;
9186;SDS011;7273;48.902;9.410;2022-09-01T03:50:50;5.95;;;2.40;;
9186;SDS011;7273;48.902;9.410;2022-09-01T03:53:17;6.55;;;2.97;;
9186;SDS011;7273;48.902;9.410;2022-09-01T03:55:45;6.43;;;3.55;;
9186;SDS011;7273;48.902;9.410;2022-09-01T03:58:12;8.07;;;3.25;;
9186;SDS011;7273;48.902;9.410;2022-09-01T04:00:43;5.40;;;2.78;;
9186;SDS011;7273;48.902;9.410;2022-09-01T04:03:12;4.95;;;3.05;;
9186;SDS011;7273;48.902;9.410;2022-09-01T04:05:41;11.38;;;3.65;;
9186;SDS011;7273;48.902;9.410;2022-09-01T04:08:09;12.15;;;4.57;;
9186;SDS011;7273;48.902;9.410;2022-09-01T04:11:37;5.45;;;3.08;;
9186;SDS011;7273;48.902;9.410;2022-09-01T04:13:42;11.35;;;3.50;;
9186;SDS011;7273;48.902;9.410;2022-09-01T04:19:06;5.25;;;2.78;;
9186;SDS011;7273;48.902;9.410;2022-09-01T04:21:44;8.73;;;2.58;;
9186;SDS011;7273;48.902;9.410;2022-09-01T04:24:10;4.32;;;2.65;;
9186;SDS011;7273;48.902;9.410;2022-09-01T04:26:39;5.55;;;2.83;;
9186;SDS011;7273;48.902;9.410;2022-09-01T04:29:06;8.88;;;2.80;;
9186;SDS011;7273;48.902;9.410;2022-09-01T04:31:33;5.95;;;2.60;;
9186;SDS011;7273;48.902;9.410;2022-09-01T04:34:02;7.68;;;3.13;;
9186;SDS011;7273;48.902;9.410;2022-09-01T04:36:28;7.25;;;2.60;;
9186;SDS011;7273;48.902;9.410;2022-09-01T04:38:59;6.00;;;2.40;;
9186;SDS011;7273;48.902;9.410;2022-09-01T04:41:27;10.57;;;4.57;;
9186;SDS011;7273;48.902;9.410;2022-09-01T04:43:56;13.77;;;3.33;;
9186;SDS011;7273;48.902;9.410;2022-09-01T04:46:23;6.03;;;3.22;;
9186;SDS011;7273;48.902;9.410;2022-09-01T04:48:52;5.82;;;3.00;;
9186;SDS011;7273;48.902;9.410;2022-09-01T04:51:20;7.72;;;2.88;;
9186;SDS011;7273;48.902;9.410;2022-09-01T04:53:46;7.45;;;3.10;;
9186;SDS011;7273;48.902;9.410;2022-09-01T04:56:15;8.43;;;3.90;;
9186;SDS011;7273;48.902;9.410;2022-09-01T04:58:44;7.70;;;3.60;;
9186;SDS011;7273;48.902;9.410;2022-09-01T05:01:18;6.70;;;3.35;;
9186;SDS011;7273;48.902;9.410;2022-09-01T05:03:46;5.68;;;2.78;;
9186;SDS011;7273;48.902;9.410;2022-09-01T05:06:22;7.13;;;3.10;;
9186;SDS011;7273;48.902;9.410;2022-09-01T05:08:47;7.38;;;2.88;;
9186;SDS011;7273;48.902;9.410;2022-09-01T05:11:14;11.40;;;3.28;;
9186;SDS011;7273;48.902;9.410;2022-09-01T05:13:46;6.70;;;2.58;;
9186;SDS011;7273;48.902;9.410;2022-09-01T05:16:14;4.35;;;2.47;;
9186;SDS011;7273;48.902;9.410;2022-09-01T05:18:44;8.70;;;3.65;;
9186;SDS011;7273;48.902;9.410;2022-09-01T05:21:12;6.55;;;2.40;;
9186;SDS011;7273;48.902;9.410;2022-09-01T05:23:39;6.90;;;2.70;;
9186;SDS011;7273;48.902;9.410;2022-09-01T05:26:17;12.25;;;4.25;;
9186;SDS011;7273;48.902;9.410;2022-09-01T05:28:45;12.10;;;3.80;;
9186;SDS011;7273;48.902;9.410;2022-09-01T05:31:12;8.82;;;3.67;;
9186;SDS011;7273;48.902;9.410;2022-09-01T05:33:38;6.70;;;3.00;;
9186;SDS011;7273;48.902;9.410;2022-09-01T05:36:10;6.28;;;2.78;;
9186;SDS011;7273;48.902;9.410;2022-09-01T05:38:37;9.18;;;4.78;;
9186;SDS011;7273;48.902;9.410;2022-09-01T05:41:07;14.50;;;4.30;;
9186;SDS011;7273;48.902;9.410;2022-09-01T05:43:35;6.93;;;3.03;;
9186;SDS011;7273;48.902;9.410;2022-09-01T05:46:05;7.25;;;3.22;;
9186;SDS011;7273;48.902;9.410;2022-09-01T05:48:31;4.40;;;2.83;;
9186;SDS011;7273;48.902;9.410;2022-09-01T05:50:59;8.93;;;3.50;;
9186;SDS011;7273;48.902;9.410;2022-09-01T05:53:25;16.45;;;4.35;;
9186;SDS011;7273;48.902;9.410;2022-09-01T05:55:55;13.00;;;3.78;;
9186;SDS011;7273;48.902;9.410;2022-09-01T05:58:24;7.45;;;3.28;;
9186;SDS011;7273;48.902;9.410;2022-09-01T06:00:52;5.50;;;3.40;;
9186;SDS011;7273;48.902;9.410;2022-09-01T06:03:23;8.70;;;3.35;;
9186;SDS011;7273;48.902;9.410;2022-09-01T06:05:48;10.55;;;3.58;;
9186;SDS011;7273;48.902;9.410;2022-09-01T06:08:18;12.95;;;4.18;;
9186;SDS011;7273;48.902;9.410;2022-09-01T06:10:45;9.52;;;3.80;;
9186;SDS011;7273;48.902;9.410;2022-09-01T06:13:12;7.15;;;3.35;;
9186;SDS011;7273;48.902;9.410;2022-09-01T06:15:40;11.38;;;2.95;;
9186;SDS011;7273;48.902;9.410;2022-09-01T06:18:06;6.95;;;3.47;;
9186;SDS011;7273;48.902;9.410;2022-09-01T06:20:37;11.05;;;3.42;;
9186;SDS011;7273;48.902;9.410;2022-09-01T06:23:04;10.43;;;4.10;;
9186;SDS011;7273;48.902;9.410;2022-09-01T06:25:30;9.00;;;3.35;;
9186;SDS011;7273;48.902;9.410;2022-09-01T06:27:56;5.70;;;3.22;;
9186;SDS011;7273;48.902;9.410;2022-09-01T06:30:22;9.50;;;4.95;;
9186;SDS011;7273;48.902;9.410;2022-09-01T06:32:51;7.68;;;3.45;;
9186;SDS011;7273;48.902;9.410;2022-09-01T06:35:18;6.93;;;3.35;;
9186;SDS011;7273;48.902;9.410;2022-09-01T06:37:45;5.95;;;3.20;;
9186;SDS011;7273;48.902;9.410;2022-09-01T06:40:12;6.72;;;3.70;;
9186;SDS011;7273;48.902;9.410;2022-09-01T06:42:45;7.72;;;3.15;;
9186;SDS011;7273;48.902;9.410;2022-09-01T06:45:13;12.02;;;4.68;;
9186;SDS011;7273;48.902;9.410;2022-09-01T06:47:41;8.80;;;4.50;;
9186;SDS011;7273;48.902;9.410;2022-09-01T06:50:11;8.75;;;4.25;;
9186;SDS011;7273;48.902;9.410;2022-09-01T06:55:06;9.05;;;2.97;;
9186;SDS011;7273;48.902;9.410;2022-09-01T06:57:36;11.10;;;4.18;;
9186;SDS011;7273;48.902;9.410;2022-09-01T07:00:04;6.85;;;2.47;;
9186;SDS011;7273;48.902;9.410;2022-09-01T07:02:41;7.50;;;2.80;;
9186;SDS011;7273;48.902;9.410;2022-09-01T07:05:08;6.22;;;3.00;;
9186;SDS011;7273;48.902;9.410;2022-09-01T07:07:34;8.10;;;3.22;;
9186;SDS011;7273;48.902;9.410;2022-09-01T07:10:00;9.70;;;4.22;;
9186;SDS011;7273;48.902;9.410;2022-09-01T07:12:25;8.32;;;3.08;;
9186;SDS011;7273;48.902;9.410;2022-09-01T07:14:51;7.68;;;2.92;;
9186;SDS011;7273;48.902;9.410;2022-09-01T07:17:17;6.47;;;3.08;;
9186;SDS011;7273;48.902;9.410;2022-09-01T07:19:44;5.45;;;3.00;;
9186;SDS011;7273;48.902;9.410;2022-09-01T07:22:10;4.55;;;2.33;;
9186;SDS011;7273;48.902;9.410;2022-09-01T07:24:36;7.55;;;3.08;;
9186;SDS011;7273;48.902;9.410;2022-09-01T07:27:04;9.50;;;3.60;;
9186;SDS011;7273;48.902;9.410;2022-09-01T07:29:29;7.55;;;3.42;;
9186;SDS011;7273;48.902;9.410;2022-09-01T07:31:55;4.90;;;2.25;;
9186;SDS011;7273;48.902;9.410;2022-09-01T07:34:21;5.75;;;2.33;;
9186;SDS011;7273;48.902;9.410;2022-09-01T07:36:46;11.75;;;5.05;;
9186;SDS011;7273;48.902;9.410;2022-09-01T07:39:12;9.50;;;2.85;;
9186;SDS011;7273;48.902;9.410;2022-09-01T07:41:38;4.80;;;2.20;;
9186;SDS011;7273;48.902;9.410;2022-09-01T07:44:06;5.13;;;2.78;;
9186;SDS011;7273;48.902;9.410;2022-09-01T07:46:34;6.90;;;2.85;;
9186;SDS011;7273;48.902;9.410;2022-09-01T07:49:00;5.88;;;3.00;;
9186;SDS011;7273;48.902;9.410;2022-09-01T07:51:28;6.22;;;2.60;;
9186;SDS011;7273;48.902;9.410;2022-09-01T07:53:54;5.40;;;2.80;;
9186;SDS011;7273;48.902;9.410;2022-09-01T07:56:21;4.30;;;2.45;;
9186;SDS011;7273;48.902;9.410;2022-09-01T07:58:48;5.75;;;2.60;;
9186;SDS011;7273;48.902;9.410;2022-09-01T08:01:18;7.50;;;2.40;;
9186;SDS011;7273;48.902;9.410;2022-09-01T08:03:50;2.83;;;1.67;;
9186;SDS011;7273;48.902;9.410;2022-09-01T08:06:19;5.32;;;2.25;;
9186;SDS011;7273;48.902;9.410;2022-09-01T08:08:47;4.13;;;2.17;;
9186;SDS011;7273;48.902;9.410;2022-09-01T08:11:15;5.53;;;2.08;;
9186;SDS011;7273;48.902;9.410;2022-09-01T08:16:14;5.68;;;2.30;;
9186;SDS011;7273;48.902;9.410;2022-09-01T08:18:40;6.57;;;2.20;;
9186;SDS011;7273;48.902;9.410;2022-09-01T08:21:07;3.72;;;1.77;;
9186;SDS011;7273;48.902;9.410;2022-09-01T08:23:34;2.38;;;1.27;;
9186;SDS011;7273;48.902;9.410;2022-09-01T08:26:08;2.13;;;1.13;;
9186;SDS011;7273;48.902;9.410;2022-09-01T08:28:38;3.00;;;1.08;;
9186;SDS011;7273;48.902;9.410;2022-09-01T08:31:08;4.93;;;1.25;;
9186;SDS011;7273;48.902;9.410;2022-09-01T08:33:38;2.67;;;1.45;;
9186;SDS011;7273;48.902;9.410;2022-09-01T08:36:06;4.95;;;1.33;;
9186;SDS011;7273;48.902;9.410;2022-09-01T08:38:35;3.88;;;1.40;;
9186;SDS011;7273;48.902;9.410;2022-09-01T08:41:02;3.00;;;1.35;;
9186;SDS011;7273;48.902;9.410;2022-09-01T08:46:19;3.95;;;1.95;;
9186;SDS011;7273;48.902;9.410;2022-09-01T08:48:54;3.88;;;1.70;;
9186;SDS011;7273;48.902;9.410;2022-09-01T08:51:36;3.90;;;1.70;;
9186;SDS011;7273;48.902;9.410;2022-09-01T08:54:19;2.75;;;1.20;;
9186;SDS011;7273;48.902;9.410;2022-09-01T08:56:56;2.33;;;1.27;;
9186;SDS011;7273;48.902;9.410;2022-09-01T08:59:25;2.00;;;1.27;;
9186;SDS011;7273;48.902;9.410;2022-09-01T09:07:21;3.30;;;1.10;;
9186;SDS011;7273;48.902;9.410;2022-09-01T09:09:46;2.78;;;1.60;;
9186;SDS011;7273;48.902;9.410;2022-09-01T09:17:58;1.75;;;1.00;;
9186;SDS011;7273;48.902;9.410;2022-09-01T09:20:33;1.95;;;1.10;;
9186;SDS011;7273;48.902;9.410;2022-09-01T09:23:01;2.50;;;1.20;;
9186;SDS011;7273;48.902;9.410;2022-09-01T09:25:38;5.45;;;1.63;;
9186;SDS011;7273;48.902;9.410;2022-09-01T09:28:04;2.25;;;1.20;;
9186;SDS011;7273;48.902;9.410;2022-09-01T09:30:29;2.00;;;0.82;;
9186;SDS011;7273;48.902;9.410;2022-09-01T09:35:30;3.13;;;1.60;;
9186;SDS011;7273;48.902;9.410;2022-09-01T09:43:23;2.28;;;1.25;;
9186;SDS011;7273;48.902;9.410;2022-09-01T09:45:50;1.30;;;0.90;;
9186;SDS011;7273;48.902;9.410;2022-09-01T09:51:35;3.47;;;1.27;;
9186;SDS011;7273;48.902;9.410;2022-09-01T09:54:11;2.88;;;1.27;;
9186;SDS011;7273;48.902;9.410;2022-09-01T09:56:42;3.13;;;1.15;;
9186;SDS011;7273;48.902;9.410;2022-09-01T09:59:20;2.20;;;1.25;;
9186;SDS011;7273;48.902;9.410;2022-09-01T10:01:52;1.52;;;0.95;;
9186;SDS011;7273;48.902;9.410;2022-09-01T10:04:34;2.72;;;1.27;;
9186;SDS011;7273;48.902;9.410;2022-09-01T10:07:01;2.17;;;1.00;;
9186;SDS011;7273;48.902;9.410;2022-09-01T10:09:55;1.67;;;0.98;;
9186;SDS011;7273;48.902;9.410;2022-09-01T10:12:23;4.90;;;1.17;;
9186;SDS011;7273;48.902;9.410;2022-09-01T10:14:52;1.77;;;1.23;;
9186;SDS011;7273;48.902;9.410;2022-09-01T10:17:24;2.38;;;1.40;;
9186;SDS011;7273;48.902;9.410;2022-09-01T10:22:34;2.17;;;1.40;;
9186;SDS011;7273;48.902;9.410;2022-09-01T10:25:02;4.25;;;1.52;;
9186;SDS011;7273;48.902;9.410;2022-09-01T10:27:31;2.03;;;1.10;;
9186;SDS011;7273;48.902;9.410;2022-09-01T10:32:43;3.05;;;1.52;;
9186;SDS011;7273;48.902;9.410;2022-09-01T10:35:13;3.25;;;1.80;;
9186;SDS011;7273;48.902;9.410;2022-09-01T10:37:44;4.05;;;1.73;;
9186;SDS011;7273;48.902;9.410;2022-09-01T10:42:47;2.22;;;1.30;;
9186;SDS011;7273;48.902;9.410;2022-09-01T10:45:32;1.95;;;1.10;;
9186;SDS011;7273;48.902;9.410;2022-09-01T10:50:44;2.70;;;1.23;;
9186;SDS011;7273;48.902;9.410;2022-09-01T10:53:57;2.88;;;1.55;;
9186;SDS011;7273;48.902;9.410;2022-09-01T10:59:27;3.53;;;1.50;;
9186;SDS011;7273;48.902;9.410;2022-09-01T11:02:02;2.35;;;1.20;;
9186;SDS011;7273;48.902;9.410;2022-09-01T11:06:51;3.05;;;1.30;;
9186;SDS011;7273;48.902;9.410;2022-09-01T11:14:27;1.98;;;1.00;;
9186;SDS011;7273;48.902;9.410;2022-09-01T11:19:59;3.47;;;1.67;;
9186;SDS011;7273;48.902;9.410;2022-09-01T11:22:35;2.30;;;1.35;;
9186;SDS011;7273;48.902;9.410;2022-09-01T11:25:12;3.70;;;1.25;;
9186;SDS011;7273;48.902;9.410;2022-09-01T11:28:00;1.83;;;1.02;;
9186;SDS011;7273;48.902;9.410;2022-09-01T11:36:12;3.10;;;1.80;;
9186;SDS011;7273;48.902;9.410;2022-09-01T11:38:48;2.50;;;1.42;;
9186;SDS011;7273;48.902;9.410;2022-09-01T11:41:43;2.03;;;1.40;;
9186;SDS011;7273;48.902;9.410;2022-09-01T11:44:23;2.28;;;1.10;;
9186;SDS011;7273;48.902;9.410;2022-09-01T11:46:49;3.45;;;1.67;;
9186;SDS011;7273;48.902;9.410;2022-09-01T11:49:26;3.08;;;1.25;;
9186;SDS011;7273;48.902;9.410;2022-09-01T11:51:54;1.70;;;1.02;;
9186;SDS011;7273;48.902;9.410;2022-09-01T11:54:22;9.63;;;1.70;;
9186;SDS011;7273;48.902;9.410;2022-09-01T11:56:48;1.45;;;0.88;;
9186;SDS011;7273;48.902;9.410;2022-09-01T11:59:28;1.48;;;1.08;;
9186;SDS011;7273;48.902;9.410;2022-09-01T12:02:01;3.10;;;1.58;;
9186;SDS011;7273;48.902;9.410;2022-09-01T12:04:34;2.53;;;1.55;;
9186;SDS011;7273;48.902;9.410;2022-09-01T12:07:05;1.60;;;1.20;;
9186;SDS011;7273;48.902;9.410;2022-09-01T12:12:24;2.67;;;1.77;;
9186;SDS011;7273;48.902;9.410;2022-09-01T12:14:54;2.80;;;1.52;;
9186;SDS011;7273;48.902;9.410;2022-09-01T12:17:21;2.78;;;1.65;;
9186;SDS011;7273;48.902;9.410;2022-09-01T12:19:47;3.72;;;1.50;;
9186;SDS011;7273;48.902;9.410;2022-09-01T12:22:13;4.38;;;2.13;;
9186;SDS011;7273;48.902;9.410;2022-09-01T12:24:47;2.55;;;1.45;;
9186;SDS011;7273;48.902;9.410;2022-09-01T12:27:15;3.25;;;1.55;;
9186;SDS011;7273;48.902;9.410;2022-09-01T12:29:41;3.10;;;1.63;;
9186;SDS011;7273;48.902;9.410;2022-09-01T12:32:07;2.67;;;1.80;;
9186;SDS011;7273;48.902;9.410;2022-09-01T12:35:12;3.17;;;1.60;;
9186;SDS011;7273;48.902;9.410;2022-09-01T12:37:26;3.15;;;1.70;;
9186;SDS011;7273;48.902;9.410;2022-09-01T12:39:53;3.17;;;1.73;;
9186;SDS011;7273;48.902;9.410;2022-09-01T12:44:58;3.17;;;1.85;;
9186;SDS011;7273;48.902;9.410;2022-09-01T12:49:58;5.07;;;2.33;;
9186;SDS011;7273;48.902;9.410;2022-09-01T12:57:25;2.55;;;1.75;;
9186;SDS011;7273;48.902;9.410;2022-09-01T13:00:17;5.15;;;1.30;;
9186;SDS011;7273;48.902;9.410;2022-09-01T13:03:03;2.35;;;1.35;;
9186;SDS011;7273;48.902;9.410;2022-09-01T13:05:42;2.03;;;1.38;;
9186;SDS011;7273;48.902;9.410;2022-09-01T13:08:13;2.85;;;1.00;;
9186;SDS011;7273;48.902;9.410;2022-09-01T13:10:49;4.63;;;1.17;;
9186;SDS011;7273;48.902;9.410;2022-09-01T13:13:20;2.72;;;0.90;;
9186;SDS011;7273;48.902;9.410;2022-09-01T13:15:49;2.55;;;1.00;;
9186;SDS011;7273;48.902;9.410;2022-09-01T13:18:17;2.25;;;1.40;;
9186;SDS011;7273;48.902;9.410;2022-09-01T13:20:43;2.67;;;1.45;;
9186;SDS011;7273;48.902;9.410;2022-09-01T13:23:09;7.63;;;1.48;;
9186;SDS011;7273;48.902;9.410;2022-09-01T13:25:36;4.18;;;1.08;;
9186;SDS011;7273;48.902;9.410;2022-09-01T13:28:02;2.28;;;1.52;;
9186;SDS011;7273;48.902;9.410;2022-09-01T13:30:29;11.15;;;1.60;;
9186;SDS011;7273;48.902;9.410;2022-09-01T13:32:55;1.40;;;0.90;;
9186;SDS011;7273;48.902;9.410;2022-09-01T13:35:21;1.35;;;1.10;;
9186;SDS011;7273;48.902;9.410;2022-09-01T13:37:48;2.28;;;1.55;;
9186;SDS011;7273;48.902;9.410;2022-09-01T13:40:14;1.92;;;1.05;;
9186;SDS011;7273;48.902;9.410;2022-09-01T13:45:12;4.05;;;1.00;;
9186;SDS011;7273;48.902;9.410;2022-09-01T13:47:41;2.72;;;1.25;;
9186;SDS011;7273;48.902;9.410;2022-09-01T13:50:08;2.90;;;1.20;;
9186;SDS011;7273;48.902;9.410;2022-09-01T13:52:35;2.28;;;1.08;;
9186;SDS011;7273;48.902;9.410;2022-09-01T13:55:05;2.28;;;1.30;;
9186;SDS011;7273;48.902;9.410;2022-09-01T13:57:32;2.53;;;1.13;;
9186;SDS011;7273;48.902;9.410;2022-09-01T13:59:59;1.40;;;0.98;;
9186;SDS011;7273;48.902;9.410;2022-09-01T14:02:24;1.92;;;1.02;;
9186;SDS011;7273;48.902;9.410;2022-09-01T14:04:50;2.35;;;1.02;;
9186;SDS011;7273;48.902;9.410;2022-09-01T14:07:16;1.73;;;0.90;;
9186;SDS011;7273;48.902;9.410;2022-09-01T14:09:43;2.70;;;1.17;;
9186;SDS011;7273;48.902;9.410;2022-09-01T14:12:09;1.98;;;1.10;;
9186;SDS011;7273;48.902;9.410;2022-09-01T14:14:34;1.33;;;0.90;;
9186;SDS011;7273;48.902;9.410;2022-09-01T14:17:00;3.13;;;1.17;;
9186;SDS011;7273;48.902;9.410;2022-09-01T14:19:26;2.08;;;1.23;;
9186;SDS011;7273;48.902;9.410;2022-09-01T14:21:53;2.22;;;0.98;;
9186;SDS011;7273;48.902;9.410;2022-09-01T14:24:18;22.98;;;13.98;;
9186;SDS011;7273;48.902;9.410;2022-09-01T14:26:45;5.30;;;1.90;;
9186;SDS011;7273;48.902;9.410;2022-09-01T14:29:11;2.35;;;1.25;;
9186;SDS011;7273;48.902;9.410;2022-09-01T14:31:36;2.78;;;1.30;;
9186;SDS011;7273;48.902;9.410;2022-09-01T14:34:02;4.30;;;2.28;;
9186;SDS011;7273;48.902;9.410;2022-09-01T14:36:28;3.42;;;1.48;;
9186;SDS011;7273;48.902;9.410;2022-09-01T14:38:54;4.88;;;1.80;;
9186;SDS011;7273;48.902;9.410;2022-09-01T14:41:20;4.38;;;1.55;;
9186;SDS011;7273;48.902;9.410;2022-09-01T14:43:51;2.28;;;1.08;;
9186;SDS011;7273;48.902;9.410;2022-09-01T14:46:18;6.47;;;1.73;;
9186;SDS011;7273;48.902;9.410;2022-09-01T14:48:44;4.07;;;1.75;;
9186;SDS011;7273;48.902;9.410;2022-09-01T14:51:18;4.75;;;1.48;;
9186;SDS011;7273;48.902;9.410;2022-09-01T14:53:53;7.25;;;3.42;;
9186;SDS011;7273;48.902;9.410;2022-09-01T14:56:19;1.55;;;1.08;;
9186;SDS011;7273;48.902;9.410;2022-09-01T14:58:45;1.67;;;1.10;;
9186;SDS011;7273;48.902;9.410;2022-09-01T15:01:16;3.03;;;1.30;;
9186;SDS011;7273;48.902;9.410;2022-09-01T15:03:45;4.68;;;0.93;;
9186;SDS011;7273;48.902;9.410;2022-09-01T15:06:12;2.33;;;0.95;;
9186;SDS011;7273;48.902;9.410;2022-09-01T15:08:39;2.58;;;1.33;;
9186;SDS011;7273;48.902;9.410;2022-09-01T15:11:13;2.03;;;1.23;;
9186;SDS011;7273;48.902;9.410;2022-09-01T15:13:43;2.70;;;1.52;;
9186;SDS011;7273;48.902;9.410;2022-09-01T15:16:14;1.85;;;1.00;;
9186;SDS011;7273;48.902;9.410;2022-09-01T15:18:42;8.23;;;1.60;;
9186;SDS011;7273;48.902;9.410;2022-09-01T15:21:16;2.10;;;1.40;;
9186;SDS011;7273;48.902;9.410;2022-09-01T15:23:46;3.33;;;1.38;;
9186;SDS011;7273;48.902;9.410;2022-09-01T15:26:13;2.05;;;1.27;;
9186;SDS011;7273;48.902;9.410;2022-09-01T15:28:40;1.52;;;1.23;;
9186;SDS011;7273;48.902;9.410;2022-09-01T15:31:05;2.17;;;1.40;;
9186;SDS011;7273;48.902;9.410;2022-09-01T15:33:31;2.90;;;1.60;;
9186;SDS011;7273;48.902;9.410;2022-09-01T15:35:56;3.13;;;1.50;;
9186;SDS011;7273;48.902;9.410;2022-09-01T15:38:22;5.22;;;1.77;;
9186;SDS011;7273;48.902;9.410;2022-09-01T15:40:47;3.90;;;1.88;;
9186;SDS011;7273;48.902;9.410;2022-09-01T15:43:13;2.85;;;1.30;;
9186;SDS011;7273;48.902;9.410;2022-09-01T15:45:38;6.68;;;1.90;;
9186;SDS011;7273;48.902;9.410;2022-09-01T15:48:05;5.55;;;1.70;;
9186;SDS011;7273;48.902;9.410;2022-09-01T15:50:30;4.10;;;1.58;;
9186;SDS011;7273;48.902;9.410;2022-09-01T15:52:57;3.95;;;2.20;;
9186;SDS011;7273;48.902;9.410;2022-09-01T15:55:45;3.65;;;1.75;;
9186;SDS011;7273;48.902;9.410;2022-09-01T15:58:13;3.95;;;1.67;;
9186;SDS011;7273;48.902;9.410;2022-09-01T16:00:41;4.00;;;1.83;;
9186;SDS011;7273;48.902;9.410;2022-09-01T16:03:07;3.22;;;1.55;;
9186;SDS011;7273;48.902;9.410;2022-09-01T16:05:34;3.88;;;1.90;;
9186;SDS011;7273;48.902;9.410;2022-09-01T16:08:02;4.45;;;1.98;;
9186;SDS011;7273;48.902;9.410;2022-09-01T16:10:29;4.00;;;1.77;;
9186;SDS011;7273;48.902;9.410;2022-09-01T16:12:55;4.10;;;2.08;;
9186;SDS011;7273;48.902;9.410;2022-09-01T16:15:21;7.22;;;2.22;;
9186;SDS011;7273;48.902;9.410;2022-09-01T16:20:18;6.85;;;2.97;;
9186;SDS011;7273;48.902;9.410;2022-09-01T16:22:50;7.15;;;2.97;;
9186;SDS011;7273;48.902;9.410;2022-09-01T16:25:22;12.20;;;3.28;;
9186;SDS011;7273;48.902;9.410;2022-09-01T16:27:51;6.03;;;3.15;;
9186;SDS011;7273;48.902;9.410;2022-09-01T16:30:21;7.53;;;3.38;;
9186;SDS011;7273;48.902;9.410;2022-09-01T16:32:49;8.25;;;3.47;;
9186;SDS011;7273;48.902;9.410;2022-09-01T16:35:15;9.35;;;4.03;;
9186;SDS011;7273;48.902;9.410;2022-09-01T16:37:54;9.00;;;3.55;;
9186;SDS011;7273;48.902;9.410;2022-09-01T17:10:03;4.00;;;1.52;;
9186;SDS011;7273;48.902;9.410;2022-09-01T17:12:45;5.80;;;2.85;;
9186;SDS011;7273;48.902;9.410;2022-09-01T17:15:16;2.53;;;1.48;;
9186;SDS011;7273;48.902;9.410;2022-09-01T17:18:01;1.65;;;1.27;;
9186;SDS011;7273;48.902;9.410;2022-09-01T17:20:33;1.58;;;1.30;;
9186;SDS011;7273;48.902;9.410;2022-09-01T17:23:04;2.35;;;1.30;;
9186;SDS011;7273;48.902;9.410;2022-09-01T17:25:37;2.70;;;1.35;;
9186;SDS011;7273;48.902;9.410;2022-09-01T17:28:17;1.83;;;1.10;;
9186;SDS011;7273;48.902;9.410;2022-09-01T17:36:48;2.33;;;1.10;;
9186;SDS011;7273;48.902;9.410;2022-09-01T17:42:11;3.25;;;1.58;;
9186;SDS011;7273;48.902;9.410;2022-09-01T17:44:56;2.97;;;1.38;;
9186;SDS011;7273;48.902;9.410;2022-09-01T17:56:01;3.15;;;1.13;;
9186;SDS011;7273;48.902;9.410;2022-09-01T18:01:33;2.20;;;1.10;;
9186;SDS011;7273;48.902;9.410;2022-09-01T18:07:10;3.53;;;1.42;;
9186;SDS011;7273;48.902;9.410;2022-09-01T18:09:42;2.35;;;1.17;;
9186;SDS011;7273;48.902;9.410;2022-09-01T18:12:13;3.08;;;1.40;;
9186;SDS011;7273;48.902;9.410;2022-09-01T18:15:00;3.70;;;1.40;;
9186;SDS011;7273;48.902;9.410;2022-09-01T18:17:33;4.93;;;1.45;;
9186;SDS011;7273;48.902;9.410;2022-09-01T18:20:45;2.80;;;1.10;;
9186;SDS011;7273;48.902;9.410;2022-09-01T18:23:07;2.67;;;1.10;;
9186;SDS011;7273;48.902;9.410;2022-09-01T18:28:06;2.33;;;1.20;;
9186;SDS011;7273;48.902;9.410;2022-09-01T18:30:45;3.30;;;1.55;;
9186;SDS011;7273;48.902;9.410;2022-09-01T18:33:40;3.15;;;1.48;;
9186;SDS011;7273;48.902;9.410;2022-09-01T18:36:22;3.72;;;1.42;;
9186;SDS011;7273;48.902;9.410;2022-09-01T18:39:01;3.40;;;1.48;;
9186;SDS011;7273;48.902;9.410;2022-09-01T18:44:56;5.10;;;1.80;;
9186;SDS011;7273;48.902;9.410;2022-09-01T18:47:30;5.40;;;2.25;;
9186;SDS011;7273;48.902;9.410;2022-09-01T18:55:24;3.65;;;1.67;;
9186;SDS011;7273;48.902;9.410;2022-09-01T18:57:59;6.30;;;2.70;;
9186;SDS011;7273;48.902;9.410;2022-09-01T19:00:34;5.53;;;2.10;;
9186;SDS011;7273;48.902;9.410;2022-09-01T19:11:05;5.75;;;2.40;;
9186;SDS011;7273;48.902;9.410;2022-09-01T19:22:20;2.50;;;0.98;;
9186;SDS011;7273;48.902;9.410;2022-09-01T19:24:52;3.17;;;1.23;;
9186;SDS011;7273;48.902;9.410;2022-09-01T19:28:01;3.42;;;1.45;;
9186;SDS011;7273;48.902;9.410;2022-09-01T19:30:31;3.28;;;1.30;;
9186;SDS011;7273;48.902;9.410;2022-09-01T19:32:58;3.88;;;1.40;;
9186;SDS011;7273;48.902;9.410;2022-09-01T19:35:28;6.65;;;1.83;;
9186;SDS011;7273;48.902;9.410;2022-09-01T19:37:58;12.40;;;1.98;;
9186;SDS011;7273;48.902;9.410;2022-09-01T19:40:29;6.63;;;2.22;;
9186;SDS011;7273;48.902;9.410;2022-09-01T19:43:08;3.58;;;1.38;;
9186;SDS011;7273;48.902;9.410;2022-09-01T19:46:27;7.22;;;2.78;;
9186;SDS011;7273;48.902;9.410;2022-09-01T19:48:36;14.60;;;3.35;;
9186;SDS011;7273;48.902;9.410;2022-09-01T19:51:14;8.85;;;5.47;;
9186;SDS011;7273;48.902;9.410;2022-09-01T20:01:58;6.85;;;3.53;;
9186;SDS011;7273;48.902;9.410;2022-09-01T20:07:13;12.65;;;6.43;;
9186;SDS011;7273;48.902;9.410;2022-09-01T20:09:56;23.20;;;14.73;;
9186;SDS011;7273;48.902;9.410;2022-09-01T20:16:17;23.95;;;16.75;;
9186;SDS011;7273;48.902;9.410;2022-09-01T20:18:31;29.15;;;19.45;;
9186;SDS011;7273;48.902;9.410;2022-09-01T20:21:01;49.55;;;34.25;;
9186;SDS011;7273;48.902;9.410;2022-09-01T20:23:36;69.75;;;42.10;;
9186;SDS011;7273;48.902;9.410;2022-09-01T20:26:13;91.10;;;51.42;;
9186;SDS011;7273;48.902;9.410;2022-09-01T20:31:32;122.90;;;62.45;;
9186;SDS011;7273;48.902;9.410;2022-09-01T20:42:20;165.38;;;74.18;;
9186;SDS011;7273;48.902;9.410;2022-09-01T20:45:21;163.40;;;73.53;;
9186;SDS011;7273;48.902;9.410;2022-09-01T20:47:55;160.15;;;72.18;;
9186;SDS011;7273;48.902;9.410;2022-09-01T20:50:30;161.27;;;72.63;;
9186;SDS011;7273;48.902;9.410;2022-09-01T20:55:47;172.23;;;75.70;;
9186;SDS011;7273;48.902;9.410;2022-09-01T20:58:26;189.70;;;79.70;;
9186;SDS011;7273;48.902;9.410;2022-09-01T21:01:03;191.13;;;80.05;;
9186;SDS011;7273;48.902;9.410;2022-09-01T21:04:23;202.20;;;82.60;;
9186;SDS011;7273;48.902;9.410;2022-09-01T21:06:29;199.57;;;81.65;;
9186;SDS011;7273;48.902;9.410;2022-09-01T21:09:01;205.95;;;83.60;;
9186;SDS011;7273;48.902;9.410;2022-09-01T21:11:41;228.85;;;87.68;;
9186;SDS011;7273;48.902;9.410;2022-09-01T21:22:06;284.98;;;100.03;;
9186;SDS011;7273;48.902;9.410;2022-09-01T21:24:33;293.85;;;101.80;;
9186;SDS011;7273;48.902;9.410;2022-09-01T21:27:00;280.88;;;99.10;;
9186;SDS011;7273;48.902;9.410;2022-09-01T21:31:55;304.75;;;103.47;;
9186;SDS011;7273;48.902;9.410;2022-09-01T21:34:21;329.70;;;108.55;;
9186;SDS011;7273;48.902;9.410;2022-09-01T21:36:47;368.55;;;116.03;;
9186;SDS011;7273;48.902;9.410;2022-09-01T21:39:12;357.05;;;113.95;;